createdAt,value
2017-10-02T00:00:09.941Z,1011.30
2017-10-02T00:01:10.049Z,1011.25
2017-10-02T00:02:09.893Z,1011.21
2017-10-02T00:03:09.963Z,1011.24
2017-10-02T00:04:09.864Z,1011.18
2017-10-02T00:05:09.895Z,1011.16
2017-10-02T00:06:09.808Z,1011.16
2017-10-02T00:07:09.887Z,1011.20
2017-10-02T00:08:09.752Z,1011.14
2017-10-02T00:09:09.799Z,1011.13
2017-10-02T00:10:09.724Z,1011.12
2017-10-02T00:11:09.811Z,1011.11
2017-10-02T00:12:09.674Z,1011.09
2017-10-02T00:13:09.723Z,1011.09
2017-10-02T00:14:09.621Z,1011.10
2017-10-02T00:15:09.740Z,1011.05
2017-10-02T00:16:09.577Z,1011.08
2017-10-02T00:17:09.646Z,1011.06
2017-10-02T00:18:09.529Z,1011.01
2017-10-02T00:19:09.661Z,1010.98
2017-10-02T00:20:09.483Z,1010.97
2017-10-02T00:21:09.569Z,1010.94
2017-10-02T00:22:09.436Z,1010.93
2017-10-02T00:23:09.483Z,1010.89
2017-10-02T00:24:09.392Z,1010.88
2017-10-02T00:25:09.493Z,1010.91
2017-10-02T00:26:09.347Z,1010.86
2017-10-02T00:27:09.409Z,1010.85
2017-10-02T00:28:09.303Z,1010.82
2017-10-02T00:29:09.421Z,1010.81
2017-10-02T00:30:09.254Z,1010.76
2017-10-02T00:31:09.334Z,1010.83
2017-10-02T00:32:09.209Z,1010.76
2017-10-02T00:33:09.347Z,1010.79
2017-10-02T00:34:09.163Z,1010.77
2017-10-02T00:35:09.258Z,1010.71
2017-10-02T00:36:09.123Z,1010.76
2017-10-02T00:37:09.166Z,1010.72
2017-10-02T00:38:09.070Z,1010.70
2017-10-02T00:39:09.183Z,1010.68
2017-10-02T00:40:09.030Z,1010.64
2017-10-02T00:41:09.093Z,1010.66
2017-10-02T00:42:08.983Z,1010.64
2017-10-02T00:43:09.110Z,1010.61
2017-10-02T00:44:08.938Z,1010.61
2017-10-02T00:45:09.018Z,1010.67
2017-10-02T00:46:08.886Z,1010.68
2017-10-02T00:47:09.034Z,1010.71
2017-10-02T00:48:08.851Z,1010.77
2017-10-02T00:49:08.944Z,1010.75
2017-10-02T00:50:08.794Z,1010.74
2017-10-02T00:51:08.857Z,1010.75
2017-10-02T00:52:08.755Z,1010.74
2017-10-02T00:53:08.872Z,1010.71
2017-10-02T00:54:08.706Z,1010.74
2017-10-02T00:55:08.782Z,1010.71
2017-10-02T00:56:08.657Z,1010.71
2017-10-02T00:57:08.798Z,1010.75
2017-10-02T00:58:08.619Z,1010.77
2017-10-02T00:59:08.707Z,1010.76
2017-10-02T01:00:08.568Z,1010.79
2017-10-02T01:01:08.722Z,1010.79
2017-10-02T01:02:08.524Z,1010.82
2017-10-02T01:03:08.633Z,1010.85
2017-10-02T01:04:08.483Z,1010.86
2017-10-02T01:05:08.572Z,1010.95
2017-10-02T01:06:08.435Z,1010.97
2017-10-02T01:07:08.558Z,1010.95
2017-10-02T01:08:08.388Z,1010.94
2017-10-02T01:09:08.466Z,1010.94
2017-10-02T01:10:08.341Z,1010.92
2017-10-02T01:11:08.484Z,1010.93
2017-10-02T01:12:08.295Z,1010.89
2017-10-02T01:13:08.395Z,1010.88
2017-10-02T01:14:08.250Z,1010.83
2017-10-02T01:15:08.411Z,1010.83
2017-10-02T01:16:08.202Z,1010.79
2017-10-02T01:17:08.323Z,1010.77
2017-10-02T01:18:08.161Z,1010.72
2017-10-02T01:19:08.335Z,1010.69
2017-10-02T01:20:08.111Z,1010.63
2017-10-02T01:21:08.246Z,1010.60
2017-10-02T01:22:08.069Z,1010.54
2017-10-02T01:23:08.159Z,1010.56
2017-10-02T01:24:08.023Z,1010.54
2017-10-02T01:25:08.171Z,1010.63
2017-10-02T01:26:07.980Z,1010.62
2017-10-02T01:27:08.085Z,1010.66
2017-10-02T01:28:07.935Z,1010.64
2017-10-02T01:29:08.097Z,1010.66
2017-10-02T01:30:07.887Z,1010.62
2017-10-02T01:31:08.004Z,1010.59
2017-10-02T01:32:07.842Z,1010.63
2017-10-02T01:33:08.024Z,1010.60
2017-10-02T01:34:07.793Z,1010.64
2017-10-02T01:35:07.930Z,1010.56
2017-10-02T01:36:07.755Z,1010.61
2017-10-02T01:37:07.842Z,1010.59
2017-10-02T01:38:07.707Z,1010.57
2017-10-02T01:39:07.859Z,1010.57
2017-10-02T01:40:07.664Z,1010.62
2017-10-02T01:41:07.771Z,1010.61
2017-10-02T01:42:07.616Z,1010.60
2017-10-02T01:43:07.786Z,1010.65
2017-10-02T01:44:07.579Z,1010.62
2017-10-02T01:45:07.693Z,1010.62
2017-10-02T01:46:07.535Z,1010.67
2017-10-02T01:47:07.709Z,1010.62
2017-10-02T01:48:07.479Z,1010.57
2017-10-02T01:49:07.617Z,1010.57
2017-10-02T01:50:07.435Z,1010.56
2017-10-02T01:51:07.532Z,1010.52
2017-10-02T01:52:07.387Z,1010.50
2017-10-02T01:53:07.545Z,1010.48
2017-10-02T01:54:07.343Z,1010.46
2017-10-02T01:55:07.457Z,1010.44
2017-10-02T01:56:07.301Z,1010.47
2017-10-02T01:57:07.367Z,1010.44
2017-10-02T01:58:07.262Z,1010.43
2017-10-02T01:59:07.381Z,1010.46
2017-10-02T02:00:07.211Z,1010.48
2017-10-02T02:01:07.395Z,1010.45
2017-10-02T02:02:07.167Z,1010.43
2017-10-02T02:03:07.206Z,1010.44
2017-10-02T02:04:07.118Z,1010.38
2017-10-02T02:05:07.219Z,1010.36
2017-10-02T02:06:07.075Z,1010.29
2017-10-02T02:07:07.135Z,1010.26
2017-10-02T02:08:07.034Z,1010.24
2017-10-02T02:09:07.043Z,1010.18
2017-10-02T02:10:06.986Z,1010.16
2017-10-02T02:11:07.057Z,1010.21
2017-10-02T02:12:06.939Z,1010.20
2017-10-02T02:13:06.970Z,1010.14
2017-10-02T02:14:06.891Z,1010.13
2017-10-02T02:15:06.981Z,1010.04
2017-10-02T02:16:06.845Z,1010.05
2017-10-02T02:17:06.892Z,1010.02
2017-10-02T02:18:06.804Z,1010.00
2017-10-02T02:19:06.908Z,1010.01
2017-10-02T02:20:06.756Z,1009.92
2017-10-02T02:21:06.820Z,1009.89
2017-10-02T02:22:06.712Z,1009.87
2017-10-02T02:23:06.742Z,1009.85
2017-10-02T02:24:06.665Z,1009.82
2017-10-02T02:25:06.754Z,1009.71
2017-10-02T02:26:06.622Z,1009.71
2017-10-02T02:27:06.657Z,1009.74
2017-10-02T02:28:06.577Z,1009.74
2017-10-02T02:29:06.673Z,1009.72
2017-10-02T02:30:06.536Z,1009.75
2017-10-02T02:31:06.578Z,1009.73
2017-10-02T02:32:06.490Z,1009.72
2017-10-02T02:33:06.618Z,1009.67
2017-10-02T02:34:06.435Z,1009.64
2017-10-02T02:35:06.507Z,1009.66
2017-10-02T02:36:06.393Z,1009.72
2017-10-02T02:37:06.520Z,1009.70
2017-10-02T02:38:06.349Z,1009.68
2017-10-02T02:39:06.438Z,1009.69
2017-10-02T02:40:06.305Z,1009.64
2017-10-02T02:41:06.344Z,1009.73
2017-10-02T02:42:06.257Z,1009.77
2017-10-02T02:43:06.357Z,1009.75
2017-10-02T02:44:06.212Z,1009.78
2017-10-02T02:45:06.268Z,1009.81
2017-10-02T02:46:06.168Z,1009.84
2017-10-02T02:47:06.283Z,1009.78
2017-10-02T02:48:06.118Z,1009.78
2017-10-02T02:49:06.193Z,1009.88
2017-10-02T02:50:06.075Z,1009.87
2017-10-02T02:51:06.223Z,1009.85
2017-10-02T02:52:06.038Z,1009.93
2017-10-02T02:53:06.118Z,1009.93
2017-10-02T02:54:05.989Z,1009.95
2017-10-02T02:55:06.031Z,1009.87
2017-10-02T02:56:05.948Z,1009.81
2017-10-02T02:57:06.044Z,1009.81
2017-10-02T02:58:05.900Z,1009.81
2017-10-02T02:59:05.955Z,1009.76
2017-10-02T03:00:05.851Z,1009.67
2017-10-02T03:01:05.969Z,1009.73
2017-10-02T03:02:05.803Z,1009.74
2017-10-02T03:03:05.882Z,1009.70
2017-10-02T03:04:05.762Z,1009.70
2017-10-02T03:05:05.895Z,1009.73
2017-10-02T03:06:05.708Z,1009.69
2017-10-02T03:07:05.806Z,1009.70
2017-10-02T03:08:05.689Z,1009.74
2017-10-02T03:09:05.718Z,1009.78
2017-10-02T03:10:05.621Z,1009.74
2017-10-02T03:11:05.732Z,1009.73
2017-10-02T03:12:05.574Z,1009.63
2017-10-02T03:13:05.645Z,1009.51
2017-10-02T03:14:05.531Z,1009.51
2017-10-02T03:15:05.658Z,1009.54
2017-10-02T03:16:05.488Z,1009.53
2017-10-02T03:17:05.568Z,1009.51
2017-10-02T03:18:05.447Z,1009.54
2017-10-02T03:19:05.582Z,1009.49
2017-10-02T03:20:05.394Z,1009.49
2017-10-02T03:21:05.502Z,1009.52
2017-10-02T03:22:05.350Z,1009.60
2017-10-02T03:23:05.509Z,1009.58
2017-10-02T03:24:05.317Z,1009.58
2017-10-02T03:25:05.420Z,1009.64
2017-10-02T03:26:05.256Z,1009.62
2017-10-02T03:27:05.329Z,1009.63
2017-10-02T03:28:05.214Z,1009.57
2017-10-02T03:29:05.345Z,1009.57
2017-10-02T03:30:05.164Z,1009.51
2017-10-02T03:31:05.258Z,1009.59
2017-10-02T03:32:05.123Z,1009.50
2017-10-02T03:33:05.270Z,1009.50
2017-10-02T03:34:05.073Z,1009.51
2017-10-02T03:35:05.182Z,1009.51
2017-10-02T03:36:05.029Z,1009.52
2017-10-02T03:37:05.199Z,1009.50
2017-10-02T03:38:04.987Z,1009.51
2017-10-02T03:39:05.112Z,1009.45
2017-10-02T03:40:04.936Z,1009.51
2017-10-02T03:41:05.021Z,1009.46
2017-10-02T03:42:04.903Z,1009.44
2017-10-02T03:43:05.038Z,1009.40
2017-10-02T03:44:04.862Z,1009.39
2017-10-02T03:45:04.943Z,1009.40
2017-10-02T03:46:04.800Z,1009.40
2017-10-02T03:47:04.957Z,1009.39
2017-10-02T03:48:04.758Z,1009.34
2017-10-02T03:49:04.870Z,1009.35
2017-10-02T03:50:04.706Z,1009.30
2017-10-02T03:51:04.883Z,1009.31
2017-10-02T03:52:04.665Z,1009.25
2017-10-02T03:53:04.797Z,1009.22
2017-10-02T03:54:04.618Z,1009.25
2017-10-02T03:55:04.706Z,1009.25
2017-10-02T03:56:04.578Z,1009.27
2017-10-02T03:57:04.720Z,1009.24
2017-10-02T03:58:04.527Z,1009.26
2017-10-02T03:59:04.631Z,1009.27
2017-10-02T04:00:04.477Z,1009.25
2017-10-02T04:01:04.646Z,1009.28
2017-10-02T04:02:04.435Z,1009.26
2017-10-02T04:03:04.559Z,1009.26
2017-10-02T04:04:04.390Z,1009.25
2017-10-02T04:05:04.571Z,1009.23
2017-10-02T04:06:04.344Z,1009.22
2017-10-02T04:07:04.483Z,1009.23
2017-10-02T04:08:04.294Z,1009.18
2017-10-02T04:09:04.395Z,1009.22
2017-10-02T04:10:04.257Z,1009.17
2017-10-02T04:11:04.406Z,1009.08
2017-10-02T04:12:04.207Z,1009.06
2017-10-02T04:13:04.319Z,1009.07
2017-10-02T04:14:04.163Z,1009.01
2017-10-02T04:15:04.336Z,1009.03
2017-10-02T04:16:04.117Z,1009.02
2017-10-02T04:17:04.245Z,1009.01
2017-10-02T04:18:04.074Z,1009.02
2017-10-02T04:19:04.262Z,1009.04
2017-10-02T04:20:04.025Z,1009.08
2017-10-02T04:21:04.069Z,1009.08
2017-10-02T04:22:03.977Z,1009.07
2017-10-02T04:23:03.982Z,1009.03
2017-10-02T04:24:03.929Z,1009.04
2017-10-02T04:25:03.991Z,1008.99
2017-10-02T04:26:03.889Z,1008.95
2017-10-02T04:27:03.905Z,1008.90
2017-10-02T04:28:03.838Z,1008.92
2017-10-02T04:29:03.921Z,1008.93
2017-10-02T04:30:03.794Z,1008.91
2017-10-02T04:31:03.830Z,1008.84
2017-10-02T04:32:03.749Z,1008.78
2017-10-02T04:33:03.843Z,1008.72
2017-10-02T04:34:03.703Z,1008.77
2017-10-02T04:35:03.755Z,1008.88
2017-10-02T04:36:03.656Z,1008.87
2017-10-02T04:37:03.768Z,1008.91
2017-10-02T04:38:03.610Z,1008.87
2017-10-02T04:39:03.682Z,1008.89
2017-10-02T04:40:03.572Z,1008.77
2017-10-02T04:41:03.591Z,1008.73
2017-10-02T04:42:03.522Z,1008.70
2017-10-02T04:43:03.613Z,1008.81
2017-10-02T04:44:03.473Z,1008.85
2017-10-02T04:45:03.516Z,1008.95
2017-10-02T04:46:03.427Z,1008.98
2017-10-02T04:47:03.535Z,1008.93
2017-10-02T04:48:03.384Z,1008.85
2017-10-02T04:49:03.446Z,1008.94
2017-10-02T04:50:03.340Z,1008.93
2017-10-02T04:51:03.456Z,1008.92
2017-10-02T04:52:03.294Z,1008.87
2017-10-02T04:53:03.369Z,1008.90
2017-10-02T04:54:03.248Z,1008.91
2017-10-02T04:55:03.279Z,1008.95
2017-10-02T04:56:03.199Z,1008.93
2017-10-02T04:57:03.293Z,1008.96
2017-10-02T04:58:03.156Z,1009.00
2017-10-02T04:59:03.207Z,1008.96
2017-10-02T05:00:03.110Z,1008.95
2017-10-02T05:01:03.217Z,1009.03
2017-10-02T05:02:03.066Z,1008.97
2017-10-02T05:03:03.129Z,1008.98
2017-10-02T05:04:03.017Z,1008.91
2017-10-02T05:05:03.149Z,1009.00
2017-10-02T05:06:02.967Z,1008.96
2017-10-02T05:07:03.055Z,1008.96
2017-10-02T05:08:02.925Z,1009.04
2017-10-02T05:09:02.967Z,1009.03
2017-10-02T05:10:02.876Z,1008.97
2017-10-02T05:11:02.979Z,1008.99
2017-10-02T05:12:02.836Z,1009.01
2017-10-02T05:13:02.893Z,1009.13
2017-10-02T05:14:02.788Z,1009.06
2017-10-02T05:15:02.906Z,1009.10
2017-10-02T05:16:02.747Z,1009.01
2017-10-02T05:17:02.819Z,1009.10
2017-10-02T05:18:02.699Z,1009.04
2017-10-02T05:19:02.835Z,1009.04
2017-10-02T05:20:02.662Z,1009.06
2017-10-02T05:21:02.742Z,1009.07
2017-10-02T05:22:02.604Z,1009.07
2017-10-02T05:23:02.652Z,1009.04
2017-10-02T05:24:02.564Z,1009.03
2017-10-02T05:25:02.666Z,1008.98
2017-10-02T05:26:02.514Z,1008.92
2017-10-02T05:27:02.581Z,1008.87
2017-10-02T05:28:02.482Z,1008.87
2017-10-02T05:29:02.592Z,1008.90
2017-10-02T05:30:02.423Z,1008.94
2017-10-02T05:31:02.507Z,1008.93
2017-10-02T05:32:02.380Z,1008.92
2017-10-02T05:33:02.519Z,1008.94
2017-10-02T05:34:02.339Z,1008.95
2017-10-02T05:35:02.432Z,1008.99
2017-10-02T05:36:02.291Z,1009.00
2017-10-02T05:37:02.451Z,1008.96
2017-10-02T05:38:02.248Z,1008.88
2017-10-02T05:39:02.355Z,1008.91
2017-10-02T05:40:02.201Z,1008.93
2017-10-02T05:41:02.269Z,1008.88
2017-10-02T05:42:02.153Z,1008.88
2017-10-02T05:43:02.282Z,1008.88
2017-10-02T05:44:02.107Z,1008.93
2017-10-02T05:45:02.194Z,1008.94
2017-10-02T05:46:02.066Z,1008.99
2017-10-02T05:47:02.202Z,1008.98
2017-10-02T05:48:02.024Z,1008.99
2017-10-02T05:49:02.117Z,1009.00
2017-10-02T05:50:01.975Z,1009.05
2017-10-02T05:51:02.132Z,1009.00
2017-10-02T05:52:01.925Z,1009.02
2017-10-02T05:53:02.044Z,1009.03
2017-10-02T05:54:01.881Z,1009.05
2017-10-02T05:55:01.953Z,1009.05
2017-10-02T05:56:01.835Z,1009.08
2017-10-02T05:57:01.969Z,1009.03
2017-10-02T05:58:01.786Z,1008.99
2017-10-02T05:59:01.880Z,1009.07
2017-10-02T06:00:01.745Z,1009.02
2017-10-02T06:01:01.892Z,1009.07
2017-10-02T06:02:01.715Z,1009.07
2017-10-02T06:03:01.809Z,1009.12
2017-10-02T06:04:01.667Z,1009.08
2017-10-02T06:05:01.819Z,1009.10
2017-10-02T06:06:01.621Z,1009.03
2017-10-02T06:07:01.727Z,1009.07
2017-10-02T06:08:01.566Z,1009.06
2017-10-02T06:09:01.555Z,1009.11
2017-10-02T06:10:01.522Z,1009.04
2017-10-02T06:11:01.654Z,1009.01
2017-10-02T06:12:01.472Z,1009.01
2017-10-02T06:13:01.567Z,1009.02
2017-10-02T06:14:01.434Z,1009.00
2017-10-02T06:15:01.579Z,1009.01
2017-10-02T06:16:01.384Z,1009.00
2017-10-02T06:17:01.490Z,1008.95
2017-10-02T06:18:01.341Z,1008.95
2017-10-02T06:19:01.505Z,1008.98
2017-10-02T06:20:01.294Z,1008.96
2017-10-02T06:21:01.416Z,1008.90
2017-10-02T06:22:01.248Z,1008.93
2017-10-02T06:23:01.432Z,1008.94
2017-10-02T06:24:01.204Z,1008.99
2017-10-02T06:25:01.344Z,1008.98
2017-10-02T06:26:01.158Z,1009.00
2017-10-02T06:27:01.252Z,1009.02
2017-10-02T06:28:01.114Z,1008.99
2017-10-02T06:29:01.265Z,1009.00
2017-10-02T06:30:01.069Z,1008.97
2017-10-02T06:31:01.179Z,1009.00
2017-10-02T06:32:01.024Z,1009.02
2017-10-02T06:33:01.195Z,1008.98
2017-10-02T06:34:00.978Z,1009.02
2017-10-02T06:35:01.104Z,1009.12
2017-10-02T06:36:00.938Z,1009.13
2017-10-02T06:37:01.115Z,1009.13
2017-10-02T06:38:00.894Z,1009.14
2017-10-02T06:39:01.030Z,1009.11
2017-10-02T06:40:00.843Z,1009.07
2017-10-02T06:41:00.948Z,1009.15
2017-10-02T06:42:00.799Z,1009.09
2017-10-02T06:43:00.954Z,1009.08
2017-10-02T06:44:00.777Z,1009.06
2017-10-02T06:45:00.763Z,1008.99
2017-10-02T06:46:00.711Z,1009.03
2017-10-02T06:47:00.781Z,1008.96
2017-10-02T06:48:00.661Z,1008.91
2017-10-02T06:49:00.688Z,1008.89
2017-10-02T06:50:00.615Z,1008.89
2017-10-02T06:51:00.703Z,1008.92
2017-10-02T06:52:00.580Z,1008.89
2017-10-02T06:53:00.615Z,1008.89
2017-10-02T06:54:00.529Z,1008.88
2017-10-02T06:55:00.627Z,1008.91
2017-10-02T06:56:00.487Z,1008.95
2017-10-02T06:57:00.540Z,1008.93
2017-10-02T06:58:00.442Z,1008.89
2017-10-02T06:59:00.452Z,1008.95
2017-10-02T07:00:00.395Z,1008.99
2017-10-02T07:01:00.463Z,1008.96
2017-10-02T07:02:00.351Z,1008.92
2017-10-02T07:03:00.381Z,1008.98
2017-10-02T07:04:00.301Z,1008.97
2017-10-02T07:05:00.391Z,1008.89
2017-10-02T07:06:00.261Z,1008.91
2017-10-02T07:07:00.300Z,1008.96
2017-10-02T07:08:00.212Z,1008.91
2017-10-02T07:09:00.319Z,1008.89
2017-10-02T07:10:00.183Z,1008.84
2017-10-02T07:11:00.230Z,1008.86
2017-10-02T07:12:00.126Z,1008.82
2017-10-02T07:13:00.246Z,1008.90
2017-10-02T07:14:00.085Z,1008.82
2017-10-02T07:15:00.154Z,1008.80
2017-10-02T07:16:00.035Z,1008.83
2017-10-02T07:17:00.065Z,1008.92
2017-10-02T07:17:59.989Z,1008.86
2017-10-02T07:19:00.080Z,1008.87
2017-10-02T07:19:59.947Z,1008.92
2017-10-02T07:20:59.992Z,1008.90
2017-10-02T07:21:59.900Z,1008.86
2017-10-02T07:23:00.005Z,1008.89
2017-10-02T07:23:59.855Z,1008.88
2017-10-02T07:24:59.917Z,1008.91
2017-10-02T07:25:59.814Z,1008.92
2017-10-02T07:26:59.930Z,1008.86
2017-10-02T07:27:59.772Z,1008.89
2017-10-02T07:28:59.841Z,1008.88
2017-10-02T07:29:59.724Z,1008.91
2017-10-02T07:30:59.861Z,1008.85
2017-10-02T07:31:59.677Z,1008.78
2017-10-02T07:32:59.767Z,1008.88
2017-10-02T07:33:59.633Z,1008.89
2017-10-02T07:34:59.677Z,1008.91
2017-10-02T07:35:59.586Z,1008.93
2017-10-02T07:36:59.589Z,1008.90
2017-10-02T07:37:59.552Z,1008.91
2017-10-02T07:38:59.600Z,1008.97
2017-10-02T07:39:59.505Z,1009.00
2017-10-02T07:40:59.513Z,1008.95
2017-10-02T07:41:59.456Z,1008.97
2017-10-02T07:42:59.527Z,1009.06
2017-10-02T07:43:59.409Z,1009.13
2017-10-02T07:44:59.437Z,1009.06
2017-10-02T07:45:59.362Z,1009.14
2017-10-02T07:46:59.453Z,1009.08
2017-10-02T07:47:59.325Z,1009.03
2017-10-02T07:48:59.363Z,1009.10
2017-10-02T07:49:59.286Z,1009.02
2017-10-02T07:50:59.275Z,1009.01
2017-10-02T07:51:59.235Z,1009.02
2017-10-02T07:52:59.293Z,1009.01
2017-10-02T07:53:59.192Z,1009.05
2017-10-02T07:54:59.199Z,1009.03
2017-10-02T07:55:59.143Z,1009.03
2017-10-02T07:56:59.214Z,1009.05
2017-10-02T07:57:59.099Z,1009.06
2017-10-02T07:58:59.126Z,1009.10
2017-10-02T07:59:59.052Z,1009.13
2017-10-02T08:00:59.138Z,1009.10
2017-10-02T08:01:59.012Z,1009.17
2017-10-02T08:02:59.052Z,1009.14
2017-10-02T08:03:58.966Z,1009.07
2017-10-02T08:04:58.967Z,1009.09
2017-10-02T08:05:58.922Z,1009.12
2017-10-02T08:06:58.974Z,1009.20
2017-10-02T08:07:58.877Z,1009.16
2017-10-02T08:08:58.866Z,1009.15
2017-10-02T08:09:58.833Z,1009.10
2017-10-02T08:10:58.900Z,1009.19
2017-10-02T08:11:58.788Z,1009.19
2017-10-02T08:12:58.811Z,1009.15
2017-10-02T08:13:58.744Z,1009.20
2017-10-02T08:14:58.731Z,1009.22
2017-10-02T08:15:58.731Z,1009.25
2017-10-02T08:16:58.679Z,1009.24
2017-10-02T08:17:58.742Z,1009.20
2017-10-02T08:18:58.628Z,1009.15
2017-10-02T08:19:58.653Z,1009.20
2017-10-02T08:20:58.594Z,1009.10
2017-10-02T08:21:58.674Z,1009.16
2017-10-02T08:22:58.556Z,1009.19
2017-10-02T08:23:58.579Z,1009.23
2017-10-02T08:24:58.515Z,1009.23
2017-10-02T08:25:58.491Z,1009.25
2017-10-02T08:26:58.457Z,1009.23
2017-10-02T08:27:58.508Z,1009.26
2017-10-02T08:28:58.411Z,1009.27
2017-10-02T08:29:58.417Z,1009.31
2017-10-02T08:30:58.373Z,1009.29
2017-10-02T08:31:58.433Z,1009.30
2017-10-02T08:32:58.328Z,1009.27
2017-10-02T08:33:58.343Z,1009.24
2017-10-02T08:34:58.280Z,1009.31
2017-10-02T08:35:58.357Z,1009.28
2017-10-02T08:36:58.244Z,1009.28
2017-10-02T08:37:58.268Z,1009.22
2017-10-02T08:38:58.190Z,1009.27
2017-10-02T08:39:58.283Z,1009.28
2017-10-02T08:40:58.147Z,1009.33
2017-10-02T08:41:58.193Z,1009.32
2017-10-02T08:42:58.105Z,1009.31
2017-10-02T08:43:58.105Z,1009.29
2017-10-02T08:44:58.069Z,1009.34
2017-10-02T08:45:58.117Z,1009.35
2017-10-02T08:46:58.018Z,1009.32
2017-10-02T08:47:58.033Z,1009.31
2017-10-02T08:48:57.977Z,1009.32
2017-10-02T08:49:58.046Z,1009.27
2017-10-02T08:50:57.947Z,1009.30
2017-10-02T08:51:57.958Z,1009.27
2017-10-02T08:52:57.891Z,1009.33
2017-10-02T08:53:58.236Z,1009.30
2017-10-02T08:54:57.841Z,1009.33
2017-10-02T08:55:57.884Z,1009.37
2017-10-02T08:56:57.793Z,1009.44
2017-10-02T08:57:57.795Z,1009.44
2017-10-02T08:58:57.752Z,1009.48
2017-10-02T08:59:57.851Z,1009.46
2017-10-02T09:00:57.706Z,1009.50
2017-10-02T09:01:57.719Z,1009.45
2017-10-02T09:02:57.679Z,1009.44
2017-10-02T09:03:57.739Z,1009.39
2017-10-02T09:04:57.663Z,1009.38
2017-10-02T09:05:57.610Z,1009.42
2017-10-02T09:06:57.575Z,1009.40
2017-10-02T09:07:57.660Z,1009.43
2017-10-02T09:08:57.536Z,1009.49
2017-10-02T09:09:57.567Z,1009.45
2017-10-02T09:10:57.657Z,1009.48
2017-10-02T09:11:57.482Z,1009.54
2017-10-02T09:12:57.445Z,1009.45
2017-10-02T09:13:57.493Z,1009.46
2017-10-02T09:14:57.432Z,1009.53
2017-10-02T09:15:57.405Z,1009.50
2017-10-02T09:16:57.357Z,1009.53
2017-10-02T09:17:57.420Z,1009.56
2017-10-02T09:18:57.320Z,1009.55
2017-10-02T09:19:57.332Z,1009.56
2017-10-02T09:20:57.267Z,1009.54
2017-10-02T09:21:57.347Z,1009.53
2017-10-02T09:22:57.226Z,1009.55
2017-10-02T09:23:57.263Z,1009.59
2017-10-02T09:24:57.185Z,1009.64
2017-10-02T09:25:58.194Z,1009.70
2017-10-02T09:26:57.143Z,1009.68
2017-10-02T09:27:57.186Z,1009.74
2017-10-02T09:28:57.091Z,1009.89
2017-10-02T09:29:57.095Z,1009.96
2017-10-02T09:30:57.059Z,1009.92
2017-10-02T09:31:57.108Z,1009.95
2017-10-02T09:32:57.007Z,1009.77
2017-10-02T09:33:57.016Z,1009.73
2017-10-02T09:34:56.976Z,1009.79
2017-10-02T09:35:57.038Z,1009.77
2017-10-02T09:36:56.927Z,1009.75
2017-10-02T09:37:56.944Z,1009.82
2017-10-02T09:38:56.884Z,1009.68
2017-10-02T09:39:56.955Z,1009.66
2017-10-02T09:40:56.847Z,1009.59
2017-10-02T09:41:56.875Z,1009.62
2017-10-02T09:42:56.802Z,1009.54
2017-10-02T09:43:56.881Z,1009.42
2017-10-02T09:44:56.761Z,1009.24
2017-10-02T09:45:56.795Z,1009.25
2017-10-02T09:46:56.719Z,1009.20
2017-10-02T09:47:56.806Z,1009.19
2017-10-02T09:48:56.680Z,1009.13
2017-10-02T09:49:56.720Z,1009.10
2017-10-02T09:50:56.632Z,1009.03
2017-10-02T09:51:56.638Z,1008.95
2017-10-02T09:52:56.598Z,1008.87
2017-10-02T09:53:56.645Z,1008.78
2017-10-02T09:54:56.553Z,1008.87
2017-10-02T09:55:56.556Z,1008.78
2017-10-02T09:56:56.517Z,1008.83
2017-10-02T09:57:56.570Z,1008.92
2017-10-02T09:58:56.473Z,1009.01
2017-10-02T09:59:56.480Z,1009.04
2017-10-02T10:00:56.434Z,1009.02
2017-10-02T10:01:56.496Z,1009.07
2017-10-02T10:02:56.393Z,1009.09
2017-10-02T10:03:56.411Z,1009.07
2017-10-02T10:04:56.354Z,1009.07
2017-10-02T10:05:56.421Z,1009.07
2017-10-02T10:06:56.309Z,1009.06
2017-10-02T10:07:56.334Z,1009.08
2017-10-02T10:08:56.274Z,1008.97
2017-10-02T10:09:56.346Z,1009.03
2017-10-02T10:10:56.231Z,1009.18
2017-10-02T10:11:56.261Z,1009.16
2017-10-02T10:12:56.189Z,1009.25
2017-10-02T10:13:56.272Z,1009.21
2017-10-02T10:14:56.142Z,1009.15
2017-10-02T10:15:56.185Z,1009.13
2017-10-02T10:16:56.107Z,1009.06
2017-10-02T10:17:56.196Z,1009.14
2017-10-02T10:18:56.066Z,1009.20
2017-10-02T10:19:56.107Z,1009.21
2017-10-02T10:20:56.030Z,1009.16
2017-10-02T10:21:56.020Z,1009.15
2017-10-02T10:22:55.987Z,1009.23
2017-10-02T10:23:56.032Z,1009.33
2017-10-02T10:24:55.950Z,1009.34
2017-10-02T10:25:55.943Z,1009.29
2017-10-02T10:26:55.903Z,1009.30
2017-10-02T10:27:55.958Z,1009.32
2017-10-02T10:28:55.860Z,1009.41
2017-10-02T10:29:55.876Z,1009.38
2017-10-02T10:30:55.821Z,1009.37
2017-10-02T10:31:55.883Z,1009.34
2017-10-02T10:32:55.783Z,1009.37
2017-10-02T10:33:55.794Z,1009.44
2017-10-02T10:34:55.744Z,1009.99
2017-10-02T10:35:55.811Z,1009.69
2017-10-02T10:36:55.715Z,1009.58
2017-10-02T10:37:55.722Z,1009.77
2017-10-02T10:38:55.658Z,1009.68
2017-10-02T10:39:55.734Z,1009.65
2017-10-02T10:40:55.619Z,1009.64
2017-10-02T10:41:55.658Z,1009.53
2017-10-02T10:42:55.581Z,1009.66
2017-10-02T10:43:55.663Z,1009.76
2017-10-02T10:44:55.540Z,1009.69
2017-10-02T10:45:55.574Z,1009.82
2017-10-02T10:46:55.507Z,1009.79
2017-10-02T10:47:55.584Z,1009.69
2017-10-02T10:48:55.464Z,1009.63
2017-10-02T10:49:55.498Z,1009.69
2017-10-02T10:50:55.425Z,1009.76
2017-10-02T10:51:55.523Z,1009.85
2017-10-02T10:52:55.388Z,1009.81
2017-10-02T10:53:55.426Z,1009.83
2017-10-02T10:54:55.353Z,1010.06
2017-10-02T10:55:55.438Z,1010.34
2017-10-02T10:56:55.312Z,1010.03
2017-10-02T10:57:55.347Z,1010.33
2017-10-02T10:58:55.280Z,1010.18
2017-10-02T10:59:55.249Z,1009.78
2017-10-02T11:00:55.268Z,1009.95
2017-10-02T11:01:55.213Z,1009.65
2017-10-02T11:02:55.381Z,1009.99
2017-10-02T11:03:55.180Z,1009.94
2017-10-02T11:04:55.294Z,1010.21
2017-10-02T11:05:55.138Z,1010.15
2017-10-02T11:06:55.219Z,1010.45
2017-10-02T11:07:55.103Z,1010.42
2017-10-02T11:08:55.322Z,1010.39
2017-10-02T11:09:55.060Z,1010.43
2017-10-02T11:10:55.152Z,1010.50
2017-10-02T11:11:55.025Z,1010.49
2017-10-02T11:12:55.043Z,1010.02
2017-10-02T11:13:54.992Z,1009.98
2017-10-02T11:14:55.159Z,1009.94
2017-10-02T11:15:54.952Z,1009.85
2017-10-02T11:16:54.968Z,1010.10
2017-10-02T11:17:54.917Z,1009.81
2017-10-02T11:18:55.084Z,1009.85
2017-10-02T11:19:54.883Z,1009.84
2017-10-02T11:20:55.003Z,1009.72
2017-10-02T11:21:54.846Z,1010.05
2017-10-02T11:22:55.010Z,1010.00
2017-10-02T11:23:54.817Z,1010.19
2017-10-02T11:24:54.926Z,1010.37
2017-10-02T11:25:54.778Z,1010.48
2017-10-02T11:26:54.830Z,1010.37
2017-10-02T11:27:54.744Z,1009.69
2017-10-02T11:28:54.850Z,1009.78
2017-10-02T11:29:54.705Z,1010.29
2017-10-02T11:30:54.766Z,1009.72
2017-10-02T11:31:54.671Z,1009.71
2017-10-02T11:32:54.777Z,1009.67
2017-10-02T11:33:54.643Z,1009.61
2017-10-02T11:34:54.619Z,1009.64
2017-10-02T11:35:54.605Z,1010.06
2017-10-02T11:36:54.704Z,1010.39
2017-10-02T11:37:54.566Z,1010.33
2017-10-02T11:38:54.614Z,1010.34
2017-10-02T11:39:54.526Z,1010.31
2017-10-02T11:40:54.627Z,1010.44
2017-10-02T11:41:54.493Z,1010.40
2017-10-02T11:42:54.537Z,1010.36
2017-10-02T11:43:54.459Z,1010.50
2017-10-02T11:44:54.444Z,1010.50
2017-10-02T11:45:54.435Z,1010.44
2017-10-02T11:46:54.439Z,1010.43
2017-10-02T11:47:54.397Z,1010.46
2017-10-02T11:48:54.454Z,1010.47
2017-10-02T11:49:54.482Z,1010.43
2017-10-02T11:50:54.338Z,1010.39
2017-10-02T11:51:54.392Z,1010.42
2017-10-02T11:52:54.305Z,1010.41
2017-10-02T11:53:54.407Z,1010.46
2017-10-02T11:54:54.274Z,1010.45
2017-10-02T11:55:54.344Z,1010.46
2017-10-02T11:56:54.241Z,1010.54
2017-10-02T11:57:54.335Z,1010.51
2017-10-02T11:58:54.211Z,1010.48
2017-10-02T11:59:54.245Z,1010.46
2017-10-02T12:00:54.181Z,1010.48
2017-10-02T12:01:54.263Z,1010.55
2017-10-02T12:02:54.147Z,1010.00
2017-10-02T12:03:54.272Z,1010.52
2017-10-02T12:04:54.122Z,1010.56